aviador You're here:

MMTJ Decoded Metar

TIJUANA in MEXICO
Report Time2018-06-23 05:42:00
UTC Time2018-06-23 06:16:10
Flight Rules mvfr MVFR
WindCalm
Visibility4828 m
Phenomena:Haze
Clouds:Overcast 010 Hf
Expected CloudBase > 800 ft AGL from Temp-Dew spread
Ceiling1,000 ft
Temp17°C (ISA +3)
Dew Point15°C (88% RH)
QNH1012 hPa
Density Alt1,115 ft
Elevation499 ft
Report Wrong Elevation
Raw Report
METAR MMTJ 230542Z 00000KT 3SM HZ OVC010 17/15 A2987 RMK SLP117 50005
981 8/5//=

Extra information for MMTJ:More info

Metar Taf Metar & Taf Last 4 Metars F.Rules Stats Wind Profile Meteogram Temp Stats Airport Information Weather charts Add Link Nearby VenuesMetar ALERT Operation Metar Decoded Social comments